sensor_id;sensor_type;location;lat;lon;timestamp;P1;durP1;ratioP1;P2;durP2;ratioP2
22336;SDS011;14992;50.844;4.418;2023-04-25T00:00:33;17.45;;;4.80;;
22336;SDS011;14992;50.844;4.418;2023-04-25T00:03:02;7.78;;;2.92;;
22336;SDS011;14992;50.844;4.418;2023-04-25T00:05:32;7.93;;;3.03;;
22336;SDS011;14992;50.844;4.418;2023-04-25T00:08:04;11.65;;;3.10;;
22336;SDS011;14992;50.844;4.418;2023-04-25T00:10:33;14.18;;;3.90;;
22336;SDS011;14992;50.844;4.418;2023-04-25T00:13:02;10.50;;;2.63;;
22336;SDS011;14992;50.844;4.418;2023-04-25T00:15:31;12.00;;;3.25;;
22336;SDS011;14992;50.844;4.418;2023-04-25T00:18:01;9.68;;;3.25;;
22336;SDS011;14992;50.844;4.418;2023-04-25T00:20:30;11.38;;;3.42;;
22336;SDS011;14992;50.844;4.418;2023-04-25T00:23:01;10.90;;;2.38;;
22336;SDS011;14992;50.844;4.418;2023-04-25T00:25:30;7.90;;;3.00;;
22336;SDS011;14992;50.844;4.418;2023-04-25T00:28:01;12.57;;;3.08;;
22336;SDS011;14992;50.844;4.418;2023-04-25T00:30:29;10.18;;;2.70;;
22336;SDS011;14992;50.844;4.418;2023-04-25T00:32:59;11.15;;;2.90;;
22336;SDS011;14992;50.844;4.418;2023-04-25T00:35:28;6.18;;;2.58;;
22336;SDS011;14992;50.844;4.418;2023-04-25T00:37:57;8.20;;;3.17;;
22336;SDS011;14992;50.844;4.418;2023-04-25T00:40:28;11.40;;;3.00;;
22336;SDS011;14992;50.844;4.418;2023-04-25T00:42:58;7.72;;;2.75;;
22336;SDS011;14992;50.844;4.418;2023-04-25T00:45:28;11.13;;;3.22;;
22336;SDS011;14992;50.844;4.418;2023-04-25T00:47:57;13.30;;;4.05;;
22336;SDS011;14992;50.844;4.418;2023-04-25T00:50:26;7.00;;;2.80;;
22336;SDS011;14992;50.844;4.418;2023-04-25T00:52:55;10.85;;;3.15;;
22336;SDS011;14992;50.844;4.418;2023-04-25T00:55:26;13.02;;;3.53;;
22336;SDS011;14992;50.844;4.418;2023-04-25T00:57:57;16.35;;;3.72;;
22336;SDS011;14992;50.844;4.418;2023-04-25T01:00:29;10.45;;;3.13;;
22336;SDS011;14992;50.844;4.418;2023-04-25T01:03:00;7.55;;;3.95;;
22336;SDS011;14992;50.844;4.418;2023-04-25T01:05:31;10.98;;;2.72;;
22336;SDS011;14992;50.844;4.418;2023-04-25T01:08:01;13.25;;;3.60;;
22336;SDS011;14992;50.844;4.418;2023-04-25T01:10:31;11.40;;;3.58;;
22336;SDS011;14992;50.844;4.418;2023-04-25T01:13:02;10.90;;;3.47;;
22336;SDS011;14992;50.844;4.418;2023-04-25T01:15:32;7.80;;;3.05;;
22336;SDS011;14992;50.844;4.418;2023-04-25T01:18:03;17.17;;;3.78;;
22336;SDS011;14992;50.844;4.418;2023-04-25T01:20:34;12.75;;;3.30;;
22336;SDS011;14992;50.844;4.418;2023-04-25T01:23:06;14.00;;;2.97;;
22336;SDS011;14992;50.844;4.418;2023-04-25T01:25:37;11.65;;;3.45;;
22336;SDS011;14992;50.844;4.418;2023-04-25T01:28:06;14.65;;;3.95;;
22336;SDS011;14992;50.844;4.418;2023-04-25T01:30:35;15.52;;;3.25;;
22336;SDS011;14992;50.844;4.418;2023-04-25T01:33:05;11.38;;;4.25;;
22336;SDS011;14992;50.844;4.418;2023-04-25T01:35:38;17.17;;;6.03;;
22336;SDS011;14992;50.844;4.418;2023-04-25T01:38:09;8.50;;;3.25;;
22336;SDS011;14992;50.844;4.418;2023-04-25T01:40:40;9.15;;;3.55;;
22336;SDS011;14992;50.844;4.418;2023-04-25T01:43:10;12.82;;;2.85;;
22336;SDS011;14992;50.844;4.418;2023-04-25T01:45:41;15.77;;;3.75;;
22336;SDS011;14992;50.844;4.418;2023-04-25T01:48:13;12.52;;;3.40;;
22336;SDS011;14992;50.844;4.418;2023-04-25T01:50:43;8.13;;;3.40;;
22336;SDS011;14992;50.844;4.418;2023-04-25T01:53:16;11.07;;;3.40;;
22336;SDS011;14992;50.844;4.418;2023-04-25T01:55:48;12.35;;;3.60;;
22336;SDS011;14992;50.844;4.418;2023-04-25T01:58:24;13.48;;;3.47;;
22336;SDS011;14992;50.844;4.418;2023-04-25T02:01:15;13.00;;;3.33;;
22336;SDS011;14992;50.844;4.418;2023-04-25T02:03:54;9.95;;;2.63;;
22336;SDS011;14992;50.844;4.418;2023-04-25T02:06:30;12.98;;;3.92;;
22336;SDS011;14992;50.844;4.418;2023-04-25T02:09:00;10.48;;;3.58;;
22336;SDS011;14992;50.844;4.418;2023-04-25T02:11:31;8.82;;;3.20;;
22336;SDS011;14992;50.844;4.418;2023-04-25T02:14:20;15.63;;;3.58;;
22336;SDS011;14992;50.844;4.418;2023-04-25T02:17:04;9.98;;;3.15;;
22336;SDS011;14992;50.844;4.418;2023-04-25T02:19:34;13.55;;;3.08;;
22336;SDS011;14992;50.844;4.418;2023-04-25T02:22:03;8.68;;;3.70;;
22336;SDS011;14992;50.844;4.418;2023-04-25T02:24:33;15.00;;;3.55;;
22336;SDS011;14992;50.844;4.418;2023-04-25T02:27:03;17.02;;;4.47;;
22336;SDS011;14992;50.844;4.418;2023-04-25T02:29:34;13.85;;;3.60;;
22336;SDS011;14992;50.844;4.418;2023-04-25T02:32:03;10.15;;;3.13;;
22336;SDS011;14992;50.844;4.418;2023-04-25T02:34:33;14.43;;;4.28;;
22336;SDS011;14992;50.844;4.418;2023-04-25T02:37:03;12.38;;;3.13;;
22336;SDS011;14992;50.844;4.418;2023-04-25T02:39:34;13.48;;;4.22;;
22336;SDS011;14992;50.844;4.418;2023-04-25T02:42:03;10.70;;;3.40;;
22336;SDS011;14992;50.844;4.418;2023-04-25T02:44:32;15.00;;;3.72;;
22336;SDS011;14992;50.844;4.418;2023-04-25T02:47:05;11.95;;;3.83;;
22336;SDS011;14992;50.844;4.418;2023-04-25T02:49:34;13.32;;;3.80;;
22336;SDS011;14992;50.844;4.418;2023-04-25T02:52:03;11.27;;;3.38;;
22336;SDS011;14992;50.844;4.418;2023-04-25T02:54:32;14.90;;;3.88;;
22336;SDS011;14992;50.844;4.418;2023-04-25T02:57:03;13.77;;;3.53;;
22336;SDS011;14992;50.844;4.418;2023-04-25T02:59:36;11.00;;;4.32;;
22336;SDS011;14992;50.844;4.418;2023-04-25T03:02:05;14.82;;;4.13;;
22336;SDS011;14992;50.844;4.418;2023-04-25T03:04:34;14.38;;;4.18;;
22336;SDS011;14992;50.844;4.418;2023-04-25T03:07:04;7.18;;;4.25;;
22336;SDS011;14992;50.844;4.418;2023-04-25T03:09:34;11.38;;;3.40;;
22336;SDS011;14992;50.844;4.418;2023-04-25T03:12:03;11.85;;;3.92;;
22336;SDS011;14992;50.844;4.418;2023-04-25T03:14:33;7.80;;;3.50;;
22336;SDS011;14992;50.844;4.418;2023-04-25T03:17:04;10.80;;;4.13;;
22336;SDS011;14992;50.844;4.418;2023-04-25T03:19:34;10.02;;;3.47;;
22336;SDS011;14992;50.844;4.418;2023-04-25T03:22:04;14.13;;;3.90;;
22336;SDS011;14992;50.844;4.418;2023-04-25T03:24:36;11.68;;;4.00;;
22336;SDS011;14992;50.844;4.418;2023-04-25T03:27:06;12.13;;;3.30;;
22336;SDS011;14992;50.844;4.418;2023-04-25T03:29:35;17.88;;;3.92;;
22336;SDS011;14992;50.844;4.418;2023-04-25T03:32:05;16.25;;;4.45;;
22336;SDS011;14992;50.844;4.418;2023-04-25T03:34:35;11.63;;;3.28;;
22336;SDS011;14992;50.844;4.418;2023-04-25T03:37:05;9.80;;;3.95;;
22336;SDS011;14992;50.844;4.418;2023-04-25T03:39:38;13.18;;;4.15;;
22336;SDS011;14992;50.844;4.418;2023-04-25T03:42:08;9.43;;;3.55;;
22336;SDS011;14992;50.844;4.418;2023-04-25T03:44:38;9.30;;;3.67;;
22336;SDS011;14992;50.844;4.418;2023-04-25T03:47:07;11.98;;;3.20;;
22336;SDS011;14992;50.844;4.418;2023-04-25T03:49:36;13.75;;;4.03;;
22336;SDS011;14992;50.844;4.418;2023-04-25T03:52:07;9.40;;;3.08;;
22336;SDS011;14992;50.844;4.418;2023-04-25T03:54:40;8.32;;;3.28;;
22336;SDS011;14992;50.844;4.418;2023-04-25T03:57:13;9.32;;;3.15;;
22336;SDS011;14992;50.844;4.418;2023-04-25T03:59:44;9.93;;;3.72;;
22336;SDS011;14992;50.844;4.418;2023-04-25T04:02:14;13.38;;;3.38;;
22336;SDS011;14992;50.844;4.418;2023-04-25T04:04:44;15.80;;;3.42;;
22336;SDS011;14992;50.844;4.418;2023-04-25T04:07:15;12.77;;;4.97;;
22336;SDS011;14992;50.844;4.418;2023-04-25T04:09:50;13.05;;;4.50;;
22336;SDS011;14992;50.844;4.418;2023-04-25T04:12:26;15.02;;;3.85;;
22336;SDS011;14992;50.844;4.418;2023-04-25T04:14:55;13.88;;;3.20;;
22336;SDS011;14992;50.844;4.418;2023-04-25T04:17:24;11.10;;;3.10;;
22336;SDS011;14992;50.844;4.418;2023-04-25T04:19:53;8.70;;;3.45;;
22336;SDS011;14992;50.844;4.418;2023-04-25T04:22:23;10.07;;;3.67;;
22336;SDS011;14992;50.844;4.418;2023-04-25T04:24:57;9.20;;;3.33;;
22336;SDS011;14992;50.844;4.418;2023-04-25T04:27:45;12.70;;;3.70;;
22336;SDS011;14992;50.844;4.418;2023-04-25T04:30:34;10.30;;;4.55;;
22336;SDS011;14992;50.844;4.418;2023-04-25T04:33:07;9.27;;;3.85;;
22336;SDS011;14992;50.844;4.418;2023-04-25T04:35:37;11.38;;;4.07;;
22336;SDS011;14992;50.844;4.418;2023-04-25T04:38:09;12.00;;;3.58;;
22336;SDS011;14992;50.844;4.418;2023-04-25T04:40:40;11.02;;;2.95;;
22336;SDS011;14992;50.844;4.418;2023-04-25T04:43:15;11.25;;;3.92;;
22336;SDS011;14992;50.844;4.418;2023-04-25T04:46:05;10.30;;;3.33;;
22336;SDS011;14992;50.844;4.418;2023-04-25T04:48:53;10.95;;;3.95;;
22336;SDS011;14992;50.844;4.418;2023-04-25T04:51:49;10.98;;;4.05;;
22336;SDS011;14992;50.844;4.418;2023-04-25T04:54:45;12.85;;;3.78;;
22336;SDS011;14992;50.844;4.418;2023-04-25T04:57:35;12.10;;;3.97;;
22336;SDS011;14992;50.844;4.418;2023-04-25T05:00:44;12.77;;;4.00;;
22336;SDS011;14992;50.844;4.418;2023-04-25T05:03:52;11.85;;;4.50;;
22336;SDS011;14992;50.844;4.418;2023-04-25T05:06:42;11.63;;;3.97;;
22336;SDS011;14992;50.844;4.418;2023-04-25T05:09:24;11.02;;;3.40;;
22336;SDS011;14992;50.844;4.418;2023-04-25T05:12:07;9.52;;;3.60;;
22336;SDS011;14992;50.844;4.418;2023-04-25T05:14:38;9.13;;;3.80;;
22336;SDS011;14992;50.844;4.418;2023-04-25T05:17:43;12.60;;;4.70;;
22336;SDS011;14992;50.844;4.418;2023-04-25T05:20:24;13.35;;;4.68;;
22336;SDS011;14992;50.844;4.418;2023-04-25T05:22:58;12.00;;;4.53;;
22336;SDS011;14992;50.844;4.418;2023-04-25T05:25:57;9.27;;;3.47;;
22336;SDS011;14992;50.844;4.418;2023-04-25T05:28:49;7.07;;;2.72;;
22336;SDS011;14992;50.844;4.418;2023-04-25T05:31:35;7.88;;;3.13;;
22336;SDS011;14992;50.844;4.418;2023-04-25T05:34:09;8.02;;;2.95;;
22336;SDS011;14992;50.844;4.418;2023-04-25T05:36:58;9.43;;;3.83;;
22336;SDS011;14992;50.844;4.418;2023-04-25T05:39:28;7.78;;;2.60;;
22336;SDS011;14992;50.844;4.418;2023-04-25T05:42:26;13.20;;;3.05;;
22336;SDS011;14992;50.844;4.418;2023-04-25T05:45:22;6.50;;;3.10;;
22336;SDS011;14992;50.844;4.418;2023-04-25T05:47:58;11.27;;;3.33;;
22336;SDS011;14992;50.844;4.418;2023-04-25T05:50:41;8.50;;;2.95;;
22336;SDS011;14992;50.844;4.418;2023-04-25T05:53:29;11.25;;;3.17;;
22336;SDS011;14992;50.844;4.418;2023-04-25T05:56:01;9.38;;;3.40;;
22336;SDS011;14992;50.844;4.418;2023-04-25T05:58:30;9.00;;;3.38;;
22336;SDS011;14992;50.844;4.418;2023-04-25T06:01:00;7.68;;;3.03;;
22336;SDS011;14992;50.844;4.418;2023-04-25T06:03:30;8.05;;;3.80;;
22336;SDS011;14992;50.844;4.418;2023-04-25T06:06:00;7.28;;;3.38;;
22336;SDS011;14992;50.844;4.418;2023-04-25T06:08:31;8.18;;;2.97;;
22336;SDS011;14992;50.844;4.418;2023-04-25T06:11:00;8.77;;;3.70;;
22336;SDS011;14992;50.844;4.418;2023-04-25T06:13:29;13.73;;;6.15;;
22336;SDS011;14992;50.844;4.418;2023-04-25T06:15:58;12.20;;;3.85;;
22336;SDS011;14992;50.844;4.418;2023-04-25T06:18:28;16.95;;;4.90;;
22336;SDS011;14992;50.844;4.418;2023-04-25T06:20:58;13.60;;;4.20;;
22336;SDS011;14992;50.844;4.418;2023-04-25T06:23:27;11.52;;;3.47;;
22336;SDS011;14992;50.844;4.418;2023-04-25T06:26:04;12.73;;;4.25;;
22336;SDS011;14992;50.844;4.418;2023-04-25T06:28:36;15.57;;;5.00;;
22336;SDS011;14992;50.844;4.418;2023-04-25T06:31:05;11.82;;;3.92;;
22336;SDS011;14992;50.844;4.418;2023-04-25T06:33:35;14.82;;;4.30;;
22336;SDS011;14992;50.844;4.418;2023-04-25T06:36:06;10.50;;;4.40;;
22336;SDS011;14992;50.844;4.418;2023-04-25T06:38:36;12.85;;;4.72;;
22336;SDS011;14992;50.844;4.418;2023-04-25T06:41:05;11.60;;;5.00;;
22336;SDS011;14992;50.844;4.418;2023-04-25T06:43:36;8.15;;;4.25;;
22336;SDS011;14992;50.844;4.418;2023-04-25T06:46:23;14.65;;;5.30;;
22336;SDS011;14992;50.844;4.418;2023-04-25T06:48:53;17.25;;;4.65;;
22336;SDS011;14992;50.844;4.418;2023-04-25T06:51:23;7.57;;;3.42;;
22336;SDS011;14992;50.844;4.418;2023-04-25T06:53:55;10.35;;;3.45;;
22336;SDS011;14992;50.844;4.418;2023-04-25T06:56:39;6.30;;;3.72;;
22336;SDS011;14992;50.844;4.418;2023-04-25T06:59:12;10.77;;;2.88;;
22336;SDS011;14992;50.844;4.418;2023-04-25T07:01:44;11.00;;;4.00;;
22336;SDS011;14992;50.844;4.418;2023-04-25T07:04:17;9.60;;;3.17;;
22336;SDS011;14992;50.844;4.418;2023-04-25T07:06:54;7.15;;;2.78;;
22336;SDS011;14992;50.844;4.418;2023-04-25T07:09:33;6.72;;;3.30;;
22336;SDS011;14992;50.844;4.418;2023-04-25T07:12:04;10.77;;;2.80;;
22336;SDS011;14992;50.844;4.418;2023-04-25T07:14:34;6.18;;;2.80;;
22336;SDS011;14992;50.844;4.418;2023-04-25T07:17:03;4.20;;;2.42;;
22336;SDS011;14992;50.844;4.418;2023-04-25T07:19:34;7.22;;;3.00;;
22336;SDS011;14992;50.844;4.418;2023-04-25T07:22:07;12.63;;;3.35;;
22336;SDS011;14992;50.844;4.418;2023-04-25T07:24:38;8.18;;;3.08;;
22336;SDS011;14992;50.844;4.418;2023-04-25T07:27:10;9.45;;;3.05;;
22336;SDS011;14992;50.844;4.418;2023-04-25T07:29:51;8.07;;;2.13;;
22336;SDS011;14992;50.844;4.418;2023-04-25T07:32:23;10.68;;;2.83;;
22336;SDS011;14992;50.844;4.418;2023-04-25T07:34:52;9.00;;;3.50;;
22336;SDS011;14992;50.844;4.418;2023-04-25T07:37:22;8.63;;;2.88;;
22336;SDS011;14992;50.844;4.418;2023-04-25T07:40:02;7.03;;;2.95;;
22336;SDS011;14992;50.844;4.418;2023-04-25T07:42:32;8.45;;;3.55;;
22336;SDS011;14992;50.844;4.418;2023-04-25T07:45:03;11.35;;;2.67;;
22336;SDS011;14992;50.844;4.418;2023-04-25T07:47:33;10.48;;;3.22;;
22336;SDS011;14992;50.844;4.418;2023-04-25T07:50:03;9.02;;;2.15;;
22336;SDS011;14992;50.844;4.418;2023-04-25T07:52:35;5.28;;;2.00;;
22336;SDS011;14992;50.844;4.418;2023-04-25T07:55:16;7.78;;;2.70;;
22336;SDS011;14992;50.844;4.418;2023-04-25T07:58:02;8.60;;;2.10;;
22336;SDS011;14992;50.844;4.418;2023-04-25T08:00:32;9.77;;;2.42;;
22336;SDS011;14992;50.844;4.418;2023-04-25T08:03:21;8.23;;;2.30;;
22336;SDS011;14992;50.844;4.418;2023-04-25T08:05:50;9.15;;;2.22;;
22336;SDS011;14992;50.844;4.418;2023-04-25T08:08:22;7.40;;;2.72;;
22336;SDS011;14992;50.844;4.418;2023-04-25T08:10:53;4.95;;;1.95;;
22336;SDS011;14992;50.844;4.418;2023-04-25T08:13:22;6.88;;;2.28;;
22336;SDS011;14992;50.844;4.418;2023-04-25T08:15:52;8.07;;;2.88;;
22336;SDS011;14992;50.844;4.418;2023-04-25T08:18:21;6.45;;;2.33;;
22336;SDS011;14992;50.844;4.418;2023-04-25T08:20:53;8.40;;;2.50;;
22336;SDS011;14992;50.844;4.418;2023-04-25T08:23:23;6.55;;;2.33;;
22336;SDS011;14992;50.844;4.418;2023-04-25T08:26:01;6.50;;;2.15;;
22336;SDS011;14992;50.844;4.418;2023-04-25T08:28:34;6.38;;;2.45;;
22336;SDS011;14992;50.844;4.418;2023-04-25T08:31:03;7.60;;;1.88;;
22336;SDS011;14992;50.844;4.418;2023-04-25T08:33:43;9.75;;;2.08;;
22336;SDS011;14992;50.844;4.418;2023-04-25T08:36:41;6.85;;;2.42;;
22336;SDS011;14992;50.844;4.418;2023-04-25T08:39:37;7.75;;;2.15;;
22336;SDS011;14992;50.844;4.418;2023-04-25T08:42:45;8.48;;;2.50;;
22336;SDS011;14992;50.844;4.418;2023-04-25T08:45:18;6.03;;;1.80;;
22336;SDS011;14992;50.844;4.418;2023-04-25T08:47:50;7.93;;;3.05;;
22336;SDS011;14992;50.844;4.418;2023-04-25T08:50:21;6.90;;;2.38;;
22336;SDS011;14992;50.844;4.418;2023-04-25T08:52:53;5.40;;;2.65;;
22336;SDS011;14992;50.844;4.418;2023-04-25T08:55:26;9.02;;;2.60;;
22336;SDS011;14992;50.844;4.418;2023-04-25T08:57:58;5.82;;;2.15;;
22336;SDS011;14992;50.844;4.418;2023-04-25T09:00:28;9.40;;;2.17;;
22336;SDS011;14992;50.844;4.418;2023-04-25T09:02:59;5.70;;;1.77;;
22336;SDS011;14992;50.844;4.418;2023-04-25T09:05:31;4.20;;;1.52;;
22336;SDS011;14992;50.844;4.418;2023-04-25T09:08:03;7.80;;;2.08;;
22336;SDS011;14992;50.844;4.418;2023-04-25T09:10:35;7.50;;;2.53;;
22336;SDS011;14992;50.844;4.418;2023-04-25T09:13:07;6.47;;;1.85;;
22336;SDS011;14992;50.844;4.418;2023-04-25T09:16:08;5.35;;;2.22;;
22336;SDS011;14992;50.844;4.418;2023-04-25T09:18:57;6.95;;;1.67;;
22336;SDS011;14992;50.844;4.418;2023-04-25T09:21:27;7.95;;;1.95;;
22336;SDS011;14992;50.844;4.418;2023-04-25T09:23:58;8.13;;;2.22;;
22336;SDS011;14992;50.844;4.418;2023-04-25T09:26:30;7.97;;;2.20;;
22336;SDS011;14992;50.844;4.418;2023-04-25T09:29:04;9.45;;;1.45;;
22336;SDS011;14992;50.844;4.418;2023-04-25T09:31:38;5.93;;;1.65;;
22336;SDS011;14992;50.844;4.418;2023-04-25T09:34:09;5.00;;;1.70;;
22336;SDS011;14992;50.844;4.418;2023-04-25T09:36:51;6.53;;;2.00;;
22336;SDS011;14992;50.844;4.418;2023-04-25T09:39:54;8.00;;;2.47;;
22336;SDS011;14992;50.844;4.418;2023-04-25T09:42:26;8.05;;;2.47;;
22336;SDS011;14992;50.844;4.418;2023-04-25T09:45:00;3.05;;;1.23;;
22336;SDS011;14992;50.844;4.418;2023-04-25T09:47:36;10.30;;;3.22;;
22336;SDS011;14992;50.844;4.418;2023-04-25T09:50:13;3.05;;;1.50;;
22336;SDS011;14992;50.844;4.418;2023-04-25T09:52:48;8.63;;;2.13;;
22336;SDS011;14992;50.844;4.418;2023-04-25T09:55:59;7.47;;;2.38;;
22336;SDS011;14992;50.844;4.418;2023-04-25T09:58:33;5.55;;;1.88;;
22336;SDS011;14992;50.844;4.418;2023-04-25T10:01:04;7.00;;;2.30;;
22336;SDS011;14992;50.844;4.418;2023-04-25T10:03:44;6.05;;;2.33;;
22336;SDS011;14992;50.844;4.418;2023-04-25T10:06:36;6.97;;;1.80;;
22336;SDS011;14992;50.844;4.418;2023-04-25T10:09:08;8.30;;;1.75;;
22336;SDS011;14992;50.844;4.418;2023-04-25T10:11:37;4.45;;;1.73;;
22336;SDS011;14992;50.844;4.418;2023-04-25T10:14:09;7.15;;;1.75;;
22336;SDS011;14992;50.844;4.418;2023-04-25T10:16:39;3.70;;;1.73;;
22336;SDS011;14992;50.844;4.418;2023-04-25T10:19:09;5.93;;;2.22;;
22336;SDS011;14992;50.844;4.418;2023-04-25T10:21:40;5.32;;;2.08;;
22336;SDS011;14992;50.844;4.418;2023-04-25T10:24:16;4.25;;;1.33;;
22336;SDS011;14992;50.844;4.418;2023-04-25T10:26:46;3.13;;;1.27;;
22336;SDS011;14992;50.844;4.418;2023-04-25T10:29:22;6.85;;;1.55;;
22336;SDS011;14992;50.844;4.418;2023-04-25T10:31:52;5.63;;;1.10;;
22336;SDS011;14992;50.844;4.418;2023-04-25T10:34:37;5.63;;;1.27;;
22336;SDS011;14992;50.844;4.418;2023-04-25T10:37:11;4.38;;;1.08;;
22336;SDS011;14992;50.844;4.418;2023-04-25T10:39:40;4.75;;;1.70;;
22336;SDS011;14992;50.844;4.418;2023-04-25T10:42:10;4.55;;;1.58;;
22336;SDS011;14992;50.844;4.418;2023-04-25T10:44:47;5.78;;;1.15;;
22336;SDS011;14992;50.844;4.418;2023-04-25T10:47:34;1.85;;;1.10;;
22336;SDS011;14992;50.844;4.418;2023-04-25T10:50:05;2.72;;;0.90;;
22336;SDS011;14992;50.844;4.418;2023-04-25T10:52:36;3.67;;;1.17;;
22336;SDS011;14992;50.844;4.418;2023-04-25T10:55:07;3.95;;;1.50;;
22336;SDS011;14992;50.844;4.418;2023-04-25T11:00:13;2.50;;;1.15;;
22336;SDS011;14992;50.844;4.418;2023-04-25T11:02:45;7.43;;;1.50;;
22336;SDS011;14992;50.844;4.418;2023-04-25T11:05:18;5.95;;;1.58;;
22336;SDS011;14992;50.844;4.418;2023-04-25T11:07:56;1.00;;;0.90;;
22336;SDS011;14992;50.844;4.418;2023-04-25T11:10:34;3.85;;;1.40;;
22336;SDS011;14992;50.844;4.418;2023-04-25T11:13:05;2.20;;;0.98;;
22336;SDS011;14992;50.844;4.418;2023-04-25T11:15:36;4.05;;;1.20;;
22336;SDS011;14992;50.844;4.418;2023-04-25T11:18:06;2.25;;;0.98;;
22336;SDS011;14992;50.844;4.418;2023-04-25T11:20:35;3.90;;;1.10;;
22336;SDS011;14992;50.844;4.418;2023-04-25T11:23:04;3.78;;;1.20;;
22336;SDS011;14992;50.844;4.418;2023-04-25T11:25:33;2.35;;;1.48;;
22336;SDS011;14992;50.844;4.418;2023-04-25T11:28:04;3.33;;;0.82;;
22336;SDS011;14992;50.844;4.418;2023-04-25T11:30:33;4.00;;;1.85;;
22336;SDS011;14992;50.844;4.418;2023-04-25T11:33:04;6.15;;;1.83;;
22336;SDS011;14992;50.844;4.418;2023-04-25T11:35:34;4.85;;;1.25;;
22336;SDS011;14992;50.844;4.418;2023-04-25T11:38:04;3.22;;;1.40;;
22336;SDS011;14992;50.844;4.418;2023-04-25T11:40:33;3.35;;;1.00;;
22336;SDS011;14992;50.844;4.418;2023-04-25T11:43:04;6.43;;;1.48;;
22336;SDS011;14992;50.844;4.418;2023-04-25T11:45:33;4.38;;;1.45;;
22336;SDS011;14992;50.844;4.418;2023-04-25T11:48:02;5.35;;;1.52;;
22336;SDS011;14992;50.844;4.418;2023-04-25T11:50:33;4.90;;;1.25;;
22336;SDS011;14992;50.844;4.418;2023-04-25T11:53:06;5.57;;;1.80;;
22336;SDS011;14992;50.844;4.418;2023-04-25T11:55:36;4.22;;;1.38;;
22336;SDS011;14992;50.844;4.418;2023-04-25T11:58:07;3.03;;;1.20;;
22336;SDS011;14992;50.844;4.418;2023-04-25T12:00:37;3.70;;;1.38;;
22336;SDS011;14992;50.844;4.418;2023-04-25T12:03:17;3.17;;;1.30;;
22336;SDS011;14992;50.844;4.418;2023-04-25T12:05:49;3.95;;;1.13;;
22336;SDS011;14992;50.844;4.418;2023-04-25T12:08:19;3.45;;;1.58;;
22336;SDS011;14992;50.844;4.418;2023-04-25T12:10:49;4.60;;;1.40;;
22336;SDS011;14992;50.844;4.418;2023-04-25T12:13:19;2.78;;;1.27;;
22336;SDS011;14992;50.844;4.418;2023-04-25T12:15:50;6.75;;;1.98;;
22336;SDS011;14992;50.844;4.418;2023-04-25T12:18:19;3.15;;;0.82;;
22336;SDS011;14992;50.844;4.418;2023-04-25T12:20:51;4.25;;;1.15;;
22336;SDS011;14992;50.844;4.418;2023-04-25T12:23:25;1.90;;;1.10;;
22336;SDS011;14992;50.844;4.418;2023-04-25T12:25:56;13.23;;;6.05;;
22336;SDS011;14992;50.844;4.418;2023-04-25T12:28:25;3.55;;;1.17;;
22336;SDS011;14992;50.844;4.418;2023-04-25T12:30:56;4.22;;;1.27;;
22336;SDS011;14992;50.844;4.418;2023-04-25T12:33:27;4.10;;;1.00;;
22336;SDS011;14992;50.844;4.418;2023-04-25T12:36:00;1.73;;;0.70;;
22336;SDS011;14992;50.844;4.418;2023-04-25T12:38:37;3.63;;;1.00;;
22336;SDS011;14992;50.844;4.418;2023-04-25T12:41:08;1.65;;;1.05;;
22336;SDS011;14992;50.844;4.418;2023-04-25T12:43:37;4.18;;;1.30;;
22336;SDS011;14992;50.844;4.418;2023-04-25T12:46:07;1.92;;;0.95;;
22336;SDS011;14992;50.844;4.418;2023-04-25T12:48:36;1.88;;;1.15;;
22336;SDS011;14992;50.844;4.418;2023-04-25T12:51:07;1.30;;;0.80;;
22336;SDS011;14992;50.844;4.418;2023-04-25T12:53:36;2.53;;;1.00;;
22336;SDS011;14992;50.844;4.418;2023-04-25T12:56:07;1.60;;;0.70;;
22336;SDS011;14992;50.844;4.418;2023-04-25T12:58:37;3.47;;;0.70;;
22336;SDS011;14992;50.844;4.418;2023-04-25T13:01:07;1.92;;;1.02;;
22336;SDS011;14992;50.844;4.418;2023-04-25T13:03:37;3.03;;;1.33;;
22336;SDS011;14992;50.844;4.418;2023-04-25T13:06:09;3.88;;;1.20;;
22336;SDS011;14992;50.844;4.418;2023-04-25T13:08:40;4.95;;;1.27;;
22336;SDS011;14992;50.844;4.418;2023-04-25T13:11:09;4.68;;;1.10;;
22336;SDS011;14992;50.844;4.418;2023-04-25T13:13:39;2.47;;;1.10;;
22336;SDS011;14992;50.844;4.418;2023-04-25T13:16:08;1.13;;;1.00;;
22336;SDS011;14992;50.844;4.418;2023-04-25T13:18:37;2.65;;;1.17;;
22336;SDS011;14992;50.844;4.418;2023-04-25T13:21:07;2.00;;;1.10;;
22336;SDS011;14992;50.844;4.418;2023-04-25T13:23:40;3.58;;;1.10;;
22336;SDS011;14992;50.844;4.418;2023-04-25T13:26:13;6.88;;;3.63;;
22336;SDS011;14992;50.844;4.418;2023-04-25T13:28:43;2.55;;;0.80;;
22336;SDS011;14992;50.844;4.418;2023-04-25T13:31:13;4.20;;;1.40;;
22336;SDS011;14992;50.844;4.418;2023-04-25T13:33:42;3.05;;;1.00;;
22336;SDS011;14992;50.844;4.418;2023-04-25T13:36:14;5.63;;;1.15;;
22336;SDS011;14992;50.844;4.418;2023-04-25T13:38:43;4.28;;;1.10;;
22336;SDS011;14992;50.844;4.418;2023-04-25T13:41:14;1.08;;;0.98;;
22336;SDS011;14992;50.844;4.418;2023-04-25T13:43:46;4.25;;;1.17;;
22336;SDS011;14992;50.844;4.418;2023-04-25T13:46:17;2.08;;;0.95;;
22336;SDS011;14992;50.844;4.418;2023-04-25T13:49:07;3.35;;;0.90;;
22336;SDS011;14992;50.844;4.418;2023-04-25T13:51:40;2.10;;;0.88;;
22336;SDS011;14992;50.844;4.418;2023-04-25T13:54:11;1.42;;;1.08;;
22336;SDS011;14992;50.844;4.418;2023-04-25T13:56:41;5.00;;;1.20;;
22336;SDS011;14992;50.844;4.418;2023-04-25T13:59:10;3.15;;;1.00;;
22336;SDS011;14992;50.844;4.418;2023-04-25T14:01:42;6.43;;;1.35;;
22336;SDS011;14992;50.844;4.418;2023-04-25T14:04:11;5.15;;;1.55;;
22336;SDS011;14992;50.844;4.418;2023-04-25T14:06:42;3.30;;;1.05;;
22336;SDS011;14992;50.844;4.418;2023-04-25T14:09:11;2.85;;;0.68;;
22336;SDS011;14992;50.844;4.418;2023-04-25T14:11:40;8.07;;;2.70;;
22336;SDS011;14992;50.844;4.418;2023-04-25T14:14:12;3.78;;;1.25;;
22336;SDS011;14992;50.844;4.418;2023-04-25T14:16:44;5.95;;;1.40;;
22336;SDS011;14992;50.844;4.418;2023-04-25T14:19:15;3.53;;;1.00;;
22336;SDS011;14992;50.844;4.418;2023-04-25T14:21:49;4.82;;;0.98;;
22336;SDS011;14992;50.844;4.418;2023-04-25T14:24:19;3.75;;;1.00;;
22336;SDS011;14992;50.844;4.418;2023-04-25T14:26:49;2.15;;;0.60;;
22336;SDS011;14992;50.844;4.418;2023-04-25T14:29:18;4.15;;;0.85;;
22336;SDS011;14992;50.844;4.418;2023-04-25T14:31:47;2.15;;;1.40;;
22336;SDS011;14992;50.844;4.418;2023-04-25T14:34:19;4.38;;;1.35;;
22336;SDS011;14992;50.844;4.418;2023-04-25T14:36:48;0.98;;;0.45;;
22336;SDS011;14992;50.844;4.418;2023-04-25T14:39:18;3.08;;;0.65;;
22336;SDS011;14992;50.844;4.418;2023-04-25T14:41:47;1.58;;;1.00;;
22336;SDS011;14992;50.844;4.418;2023-04-25T14:44:16;1.90;;;0.77;;
22336;SDS011;14992;50.844;4.418;2023-04-25T14:46:45;4.28;;;1.10;;
22336;SDS011;14992;50.844;4.418;2023-04-25T14:49:15;2.50;;;0.93;;
22336;SDS011;14992;50.844;4.418;2023-04-25T14:51:43;3.60;;;1.40;;
22336;SDS011;14992;50.844;4.418;2023-04-25T14:54:15;1.95;;;0.93;;
22336;SDS011;14992;50.844;4.418;2023-04-25T14:56:44;0.98;;;0.88;;
22336;SDS011;14992;50.844;4.418;2023-04-25T14:59:13;1.95;;;0.90;;
22336;SDS011;14992;50.844;4.418;2023-04-25T15:01:41;2.58;;;1.00;;
22336;SDS011;14992;50.844;4.418;2023-04-25T15:04:10;4.63;;;1.23;;
22336;SDS011;14992;50.844;4.418;2023-04-25T15:06:40;3.33;;;1.05;;
22336;SDS011;14992;50.844;4.418;2023-04-25T15:09:09;2.33;;;0.68;;
22336;SDS011;14992;50.844;4.418;2023-04-25T15:11:40;4.85;;;1.00;;
22336;SDS011;14992;50.844;4.418;2023-04-25T15:14:10;5.13;;;1.33;;
22336;SDS011;14992;50.844;4.418;2023-04-25T15:16:40;3.75;;;0.95;;
22336;SDS011;14992;50.844;4.418;2023-04-25T15:19:09;2.17;;;0.98;;
22336;SDS011;14992;50.844;4.418;2023-04-25T15:21:38;2.10;;;1.05;;